Time;durP1;ratioP1;P1;durP2;ratioP2;P2;SDS_P1;SDS_P2;PMS_P1;PMS_P2;Temp;Humidity;BMP_temperature;BMP_pressure;BME280_temperature;BME280_humidity;BME280_pressure;Samples;Min_cycle;Max_cycle;Signal;HPM_P1;HPM_P2
2022/03/01 00:00:43;;;;;;;13.15;7.57;;;7.10;99.90;;;;;;5164544;22;20077;-65
2022/03/01 00:02:44;;;;;;;13.07;7.43;;;7.10;99.90;;;;;;5165406;22;20011;-65
2022/03/01 00:04:45;;;;;;;15.75;8.13;;;7.10;99.90;;;;;;5165644;22;20040;-65
2022/03/01 00:06:46;;;;;;;12.73;7.60;;;7.00;99.90;;;;;;5164228;22;20016;-65
2022/03/01 00:08:46;;;;;;;12.70;6.82;;;7.00;99.90;;;;;;5165459;22;20039;-65
2022/03/01 00:10:47;;;;;;;11.90;7.50;;;7.00;99.90;;;;;;5164462;22;20428;-66
2022/03/01 00:12:48;;;;;;;14.85;7.80;;;7.00;99.90;;;;;;5165678;22;20443;-65
2022/03/01 00:14:48;;;;;;;14.50;8.13;;;7.00;99.90;;;;;;5165599;22;20342;-65
2022/03/01 00:16:49;;;;;;;14.95;7.78;;;7.00;99.90;;;;;;5164322;22;20355;-65
2022/03/01 00:18:49;;;;;;;12.68;7.50;;;6.90;99.90;;;;;;5165246;22;20004;-65
2022/03/01 00:20:50;;;;;;;10.43;7.20;;;6.90;99.90;;;;;;5164208;22;20013;-66
2022/03/01 00:22:51;;;;;;;12.02;7.38;;;6.90;99.90;;;;;;5164661;22;20004;-67
2022/03/01 00:24:51;;;;;;;12.05;7.07;;;6.90;99.90;;;;;;5166045;22;20016;-66
2022/03/01 00:26:52;;;;;;;12.18;6.78;;;6.90;99.90;;;;;;5165354;22;20012;-65
2022/03/01 00:28:52;;;;;;;14.35;8.05;;;6.80;99.90;;;;;;5165545;22;20109;-66
2022/03/01 00:30:55;;;;;;;12.52;7.43;;;6.80;99.90;;;;;;5164750;22;20008;-66
2022/03/01 00:32:55;;;;;;;12.88;8.10;;;6.80;99.90;;;;;;5166024;22;20012;-66
2022/03/01 00:34:56;;;;;;;11.70;7.45;;;6.80;99.90;;;;;;5165508;22;20047;-65
2022/03/01 00:36:56;;;;;;;12.15;7.18;;;6.70;99.90;;;;;;5164850;22;20027;-66
2022/03/01 00:38:57;;;;;;;11.48;7.20;;;6.70;99.90;;;;;;5165484;22;20004;-66
2022/03/01 00:40:58;;;;;;;11.77;7.10;;;6.70;99.90;;;;;;5164477;22;20086;-65
2022/03/01 00:42:59;;;;;;;11.38;7.20;;;6.70;99.90;;;;;;5165318;22;20008;-66
2022/03/01 00:44:59;;;;;;;13.50;7.80;;;6.70;99.90;;;;;;5165437;22;20016;-66
2022/03/01 00:47:00;;;;;;;10.90;6.53;;;6.70;99.90;;;;;;5164080;22;20016;-65
2022/03/01 00:49:02;;;;;;;13.23;7.72;;;6.70;99.90;;;;;;5165018;22;20314;-65
2022/03/01 00:51:03;;;;;;;12.68;7.30;;;6.70;99.90;;;;;;5163601;22;20103;-66
2022/03/01 00:53:04;;;;;;;16.20;8.23;;;6.70;99.90;;;;;;5164964;22;20008;-66
2022/03/01 00:55:05;;;;;;;12.48;7.22;;;6.60;99.90;;;;;;5164542;22;20008;-67
2022/03/01 00:57:06;;;;;;;10.85;7.00;;;6.60;99.90;;;;;;5163719;22;20019;-66
2022/03/01 00:59:08;;;;;;;14.57;7.72;;;6.60;99.90;;;;;;5165061;22;20377;-66
2022/03/01 01:01:08;;;;;;;12.95;7.47;;;6.50;99.90;;;;;;5164181;22;20040;-66
2022/03/01 01:03:09;;;;;;;12.23;7.40;;;6.50;99.90;;;;;;5164635;22;20393;-66
2022/03/01 01:05:10;;;;;;;13.57;8.52;;;6.50;99.90;;;;;;5164010;22;20100;-66
2022/03/01 01:07:10;;;;;;;14.38;8.10;;;6.50;99.90;;;;;;5163852;22;20004;-66
2022/03/01 01:09:13;;;;;;;15.95;7.95;;;6.40;99.90;;;;;;5165074;22;20016;-66
2022/03/01 01:11:14;;;;;;;13.55;7.55;;;6.40;99.90;;;;;;5163569;22;20012;-66
2022/03/01 01:13:15;;;;;;;14.73;8.18;;;6.30;99.90;;;;;;5165376;22;20096;-65
2022/03/01 01:15:18;;;;;;;14.93;8.13;;;6.30;99.90;;;;;;5163989;22;20004;-66
2022/03/01 01:17:18;;;;;;;17.83;9.25;;;6.30;99.90;;;;;;5164132;22;20123;-66
2022/03/01 01:19:19;;;;;;;16.63;8.40;;;6.20;99.90;;;;;;5164716;22;20004;-65
2022/03/01 01:21:19;;;;;;;12.60;7.63;;;6.20;99.90;;;;;;5163397;22;20050;-65
2022/03/01 01:23:20;;;;;;;13.40;8.25;;;6.20;99.90;;;;;;5164774;22;20035;-65
2022/03/01 01:25:23;;;;;;;15.10;8.55;;;6.20;99.90;;;;;;5163532;22;20020;-66
2022/03/01 01:27:23;;;;;;;15.77;8.88;;;6.20;99.90;;;;;;5164000;22;20101;-66
2022/03/01 01:29:24;;;;;;;14.50;8.20;;;6.10;99.90;;;;;;5165167;22;20012;-65
2022/03/01 01:31:25;;;;;;;18.45;8.60;;;6.20;99.90;;;;;;5164448;22;20027;-65
2022/03/01 01:33:25;;;;;;;17.52;8.82;;;6.10;99.90;;;;;;5165097;22;20087;-66
2022/03/01 01:35:28;;;;;;;13.48;8.05;;;6.10;99.90;;;;;;5164243;22;20352;-66
2022/03/01 01:37:29;;;;;;;13.27;8.05;;;6.10;99.90;;;;;;5165022;22;20012;-66
2022/03/01 01:39:30;;;;;;;14.63;7.88;;;6.10;99.90;;;;;;5164922;22;20004;-66
2022/03/01 01:41:30;;;;;;;13.10;7.80;;;6.10;99.90;;;;;;5164332;22;20081;-66
2022/03/01 01:43:31;;;;;;;14.18;7.75;;;6.10;99.90;;;;;;5164345;22;20038;-66
2022/03/01 01:45:33;;;;;;;14.35;8.55;;;6.10;99.90;;;;;;5163662;22;20008;-66
2022/03/01 01:47:34;;;;;;;13.90;8.15;;;6.10;99.90;;;;;;5164330;22;20040;-66
2022/03/01 01:49:35;;;;;;;16.05;8.32;;;6.10;99.90;;;;;;5164528;22;20087;-65
2022/03/01 01:51:35;;;;;;;14.38;7.88;;;6.10;99.90;;;;;;5163350;22;20046;-65
2022/03/01 01:53:37;;;;;;;13.15;7.82;;;6.10;99.90;;;;;;5163918;22;20095;-66
2022/03/01 01:55:38;;;;;;;12.18;7.75;;;6.20;99.90;;;;;;5164368;22;20012;-66
2022/03/01 01:57:38;;;;;;;13.13;8.15;;;6.10;99.90;;;;;;5164242;22;20082;-66
2022/03/01 01:59:39;;;;;;;13.05;7.32;;;6.10;99.90;;;;;;5164756;22;20076;-66
2022/03/01 02:01:40;;;;;;;14.70;8.43;;;6.20;99.90;;;;;;5164022;22;20016;-66
2022/03/01 02:03:41;;;;;;;15.20;8.90;;;6.10;99.90;;;;;;5164932;22;20051;-66
2022/03/01 02:05:42;;;;;;;15.20;8.25;;;6.10;99.90;;;;;;5163524;22;20349;-66
2022/03/01 02:07:48;;;;;;;13.43;7.80;;;6.10;99.90;;;;;;5164945;22;20044;-66
2022/03/01 02:09:48;;;;;;;15.48;9.00;;;6.10;99.90;;;;;;5164293;22;20012;-66
2022/03/01 02:11:49;;;;;;;14.75;8.38;;;6.20;99.90;;;;;;5163346;22;20509;-66
2022/03/01 02:13:50;;;;;;;16.08;9.07;;;6.20;99.90;;;;;;5164046;22;20008;-66
2022/03/01 02:15:51;;;;;;;13.00;8.15;;;6.20;99.90;;;;;;5163467;22;20513;-65
2022/03/01 02:17:52;;;;;;;15.32;8.30;;;6.10;99.90;;;;;;5163036;22;20015;-67
2022/03/01 02:19:52;;;;;;;14.07;8.20;;;6.10;99.90;;;;;;5164614;22;20016;-66
2022/03/01 02:21:55;;;;;;;13.63;8.27;;;6.10;99.90;;;;;;5163587;22;20024;-66
2022/03/01 02:23:56;;;;;;;14.77;9.30;;;6.10;99.90;;;;;;5164700;22;20348;-66
2022/03/01 02:25:56;;;;;;;12.82;7.38;;;6.10;99.90;;;;;;5163329;22;20036;-66
2022/03/01 02:27:57;;;;;;;14.13;8.20;;;6.10;99.90;;;;;;5164709;22;20019;-67
2022/03/01 02:29:58;;;;;;;13.50;7.68;;;6.10;99.90;;;;;;5164347;22;20027;-66
2022/03/01 02:32:02;;;;;;;13.07;8.60;;;6.10;99.90;;;;;;5163852;22;20026;-66
2022/03/01 02:34:03;;;;;;;15.68;7.93;;;6.20;99.90;;;;;;5164070;22;20012;-66
2022/03/01 02:36:04;;;;;;;12.77;7.72;;;6.10;99.90;;;;;;5163134;22;20023;-65
2022/03/01 02:38:05;;;;;;;13.80;8.48;;;6.10;99.90;;;;;;5163914;22;20008;-65
2022/03/01 02:40:06;;;;;;;13.38;7.93;;;6.10;99.90;;;;;;5162908;22;20012;-66
2022/03/01 02:42:07;;;;;;;14.75;9.25;;;6.10;99.90;;;;;;5163336;22;20436;-66
2022/03/01 02:44:08;;;;;;;16.42;9.27;;;6.10;99.90;;;;;;5164817;22;20055;-66
2022/03/01 02:46:09;;;;;;;15.30;8.98;;;6.10;99.90;;;;;;5164196;22;20016;-66
2022/03/01 02:48:09;;;;;;;16.40;8.23;;;6.00;99.90;;;;;;5164903;22;20008;-66
2022/03/01 02:50:12;;;;;;;16.60;9.18;;;6.00;99.90;;;;;;5163886;22;20421;-67
2022/03/01 02:52:12;;;;;;;;;;;6.10;99.90;;;;;;5164060;22;20016;-66
2022/03/01 02:54:13;;;;;;;13.93;8.57;;;6.00;99.90;;;;;;5164215;22;22428;-66
2022/03/01 02:56:13;;;;;;;16.52;8.73;;;6.00;99.90;;;;;;5163519;22;20083;-66
2022/03/01 02:58:15;;;;;;;14.93;8.95;;;6.00;99.90;;;;;;5164835;22;20448;-66
2022/03/01 03:00:16;;;;;;;14.88;8.85;;;6.00;99.90;;;;;;5162473;22;20314;-66
2022/03/01 03:02:18;;;;;;;15.40;8.77;;;6.00;99.90;;;;;;5163949;22;20091;-66
2022/03/01 03:04:18;;;;;;;13.95;8.13;;;6.00;99.90;;;;;;5164034;22;20015;-66
2022/03/01 03:06:19;;;;;;;14.35;9.13;;;6.00;99.90;;;;;;5163338;22;20083;-66
2022/03/01 03:08:20;;;;;;;14.63;8.25;;;6.00;99.90;;;;;;5163971;22;20014;-65
2022/03/01 03:10:21;;;;;;;15.23;8.07;;;6.00;99.90;;;;;;5162950;22;20032;-66
2022/03/01 03:12:21;;;;;;;16.38;9.27;;;6.00;99.90;;;;;;5163898;22;20354;-66
2022/03/01 03:14:22;;;;;;;15.18;8.55;;;5.90;99.90;;;;;;5161576;23;20091;-66
2022/03/01 03:16:22;;;;;;;12.52;8.38;;;5.90;99.90;;;;;;5163109;22;20039;-66
2022/03/01 03:18:23;;;;;;;16.17;9.30;;;5.90;99.90;;;;;;5163655;22;20008;-66
2022/03/01 03:20:24;;;;;;;16.42;9.18;;;5.80;99.90;;;;;;5162132;22;20083;-66
2022/03/01 03:22:25;;;;;;;13.23;8.63;;;5.80;99.90;;;;;;5163791;22;20016;-66
2022/03/01 03:24:26;;;;;;;13.73;8.68;;;5.80;99.90;;;;;;5164493;22;20004;-66
2022/03/01 03:26:26;;;;;;;15.77;9.45;;;5.80;99.90;;;;;;5162730;22;20336;-67
2022/03/01 03:28:27;;;;;;;17.65;9.23;;;5.70;99.90;;;;;;5164462;22;20017;-66
2022/03/01 03:30:27;;;;;;;14.38;8.70;;;5.70;99.90;;;;;;5160784;22;20016;-66
2022/03/01 03:32:28;;;;;;;13.95;8.48;;;5.70;99.90;;;;;;5163258;22;20028;-66
2022/03/01 03:34:29;;;;;;;15.95;9.10;;;5.70;99.90;;;;;;5163375;22;20126;-66
2022/03/01 03:36:30;;;;;;;17.60;9.45;;;5.60;99.90;;;;;;5163151;22;20008;-66
2022/03/01 03:38:31;;;;;;;16.35;9.25;;;5.60;99.90;;;;;;5163761;22;20027;-65
2022/03/01 03:40:31;;;;;;;15.75;8.65;;;5.60;99.90;;;;;;5163363;22;20084;-66
2022/03/01 03:42:33;;;;;;;14.68;8.50;;;5.60;99.90;;;;;;5163809;22;20130;-66
2022/03/01 03:44:34;;;;;;;15.80;8.57;;;5.60;99.90;;;;;;5163225;22;20074;-66
2022/03/01 03:46:35;;;;;;;16.33;8.88;;;5.70;99.90;;;;;;5163179;22;20012;-66
2022/03/01 03:48:35;;;;;;;15.45;8.82;;;5.70;99.90;;;;;;5163928;22;20324;-66
2022/03/01 03:50:36;;;;;;;12.55;7.78;;;5.70;99.90;;;;;;5162752;22;20008;-66
2022/03/01 03:52:38;;;;;;;13.45;8.07;;;5.70;99.90;;;;;;5163747;22;20024;-66
2022/03/01 03:54:39;;;;;;;12.85;8.07;;;5.70;99.90;;;;;;5162518;22;20088;-66
2022/03/01 03:56:40;;;;;;;13.10;7.88;;;5.70;99.90;;;;;;5163803;22;20331;-66
2022/03/01 03:58:40;;;;;;;13.60;8.18;;;5.70;99.90;;;;;;5164215;22;20036;-66
2022/03/01 04:00:41;;;;;;;14.60;8.25;;;5.70;99.90;;;;;;5163595;22;20333;-65
2022/03/01 04:02:47;;;;;;;14.18;8.13;;;5.70;99.90;;;;;;5164327;22;20012;-66
2022/03/01 04:04:47;;;;;;;14.15;9.05;;;5.70;99.90;;;;;;5164459;22;20079;-66
2022/03/01 04:06:48;;;;;;;14.98;8.63;;;5.70;99.90;;;;;;5163299;22;20016;-66
2022/03/01 04:08:48;;;;;;;16.92;8.20;;;5.60;99.90;;;;;;5164365;22;20001;-66
2022/03/01 04:10:49;;;;;;;12.93;8.30;;;5.60;99.90;;;;;;5162491;22;20012;-66
2022/03/01 04:12:49;;;;;;;13.50;8.30;;;5.60;99.90;;;;;;5164017;22;20090;-66
2022/03/01 04:14:50;;;;;;;14.35;8.55;;;5.60;99.90;;;;;;5164479;22;20010;-66
2022/03/01 04:16:51;;;;;;;14.98;8.50;;;5.60;99.90;;;;;;5163829;22;20030;-65
2022/03/01 04:18:51;;;;;;;15.68;9.07;;;5.60;99.90;;;;;;5164015;22;20009;-66
2022/03/01 04:20:52;;;;;;;13.77;8.18;;;5.60;99.90;;;;;;5163386;22;20336;-65
2022/03/01 04:22:52;;;;;;;15.63;8.80;;;5.60;99.90;;;;;;5164221;22;20008;-66
2022/03/01 04:24:53;;;;;;;15.80;8.75;;;5.50;99.90;;;;;;5164119;22;20027;-66
2022/03/01 04:26:54;;;;;;;14.93;8.63;;;5.50;99.90;;;;;;5163378;22;20004;-66
2022/03/01 04:28:55;;;;;;;12.60;7.80;;;5.50;99.90;;;;;;5164263;22;20004;-66
2022/03/01 04:30:56;;;;;;;14.40;8.90;;;5.50;99.90;;;;;;5162833;22;20412;-66
2022/03/01 04:32:56;;;;;;;15.85;8.38;;;5.40;99.90;;;;;;5163531;22;20004;-66
2022/03/01 04:34:57;;;;;;;13.95;8.77;;;5.40;99.90;;;;;;5163453;22;20008;-66
2022/03/01 04:36:57;;;;;;;15.30;8.43;;;5.40;99.90;;;;;;5161889;22;20011;-66
2022/03/01 04:38:58;;;;;;;14.90;8.45;;;5.40;99.90;;;;;;5162581;23;20016;-66
2022/03/01 04:40:59;;;;;;;15.43;8.57;;;5.30;99.90;;;;;;5163843;22;20004;-65
2022/03/01 04:42:59;;;;;;;18.20;9.88;;;5.30;99.90;;;;;;5165821;22;20012;-65
2022/03/01 04:45:00;;;;;;;16.90;8.55;;;5.30;99.90;;;;;;5166261;22;20019;-65
2022/03/01 04:47:02;;;;;;;15.40;8.25;;;5.30;99.90;;;;;;5166204;22;20119;-65
2022/03/01 04:49:03;;;;;;;17.25;9.32;;;5.30;99.90;;;;;;5166323;22;20438;-66
2022/03/01 04:51:04;;;;;;;14.32;8.32;;;5.20;99.90;;;;;;5164798;22;20039;-66
2022/03/01 04:53:05;;;;;;;13.55;8.50;;;5.20;99.90;;;;;;5165216;22;20000;-65
2022/03/01 04:55:06;;;;;;;16.10;8.38;;;5.20;99.90;;;;;;5163243;22;20375;-66
2022/03/01 04:57:07;;;;;;;15.32;8.55;;;5.10;99.90;;;;;;5165055;22;20008;-66
2022/03/01 04:59:09;;;;;;;15.48;8.43;;;5.10;99.90;;;;;;5165145;22;20015;-66
2022/03/01 05:01:10;;;;;;;15.20;8.63;;;5.10;99.90;;;;;;5163329;22;20013;-66
2022/03/01 05:03:10;;;;;;;15.23;8.65;;;5.00;99.90;;;;;;5164597;22;20080;-65
2022/03/01 05:05:11;;;;;;;16.73;8.73;;;5.00;99.90;;;;;;5165186;22;20019;-66
2022/03/01 05:07:12;;;;;;;15.55;7.95;;;5.10;99.90;;;;;;5165911;22;20035;-66
2022/03/01 05:09:13;;;;;;;15.40;8.30;;;5.10;99.90;;;;;;5165861;22;20043;-66
2022/03/01 05:11:13;;;;;;;14.07;8.07;;;5.00;99.90;;;;;;5164774;22;20386;-66
2022/03/01 05:13:14;;;;;;;14.65;8.10;;;5.10;99.90;;;;;;5165302;22;20031;-66
2022/03/01 05:15:16;;;;;;;13.68;8.27;;;5.10;99.90;;;;;;5164924;22;20019;-66
2022/03/01 05:17:16;;;;;;;13.50;7.88;;;5.10;99.90;;;;;;5165079;22;20084;-65
2022/03/01 05:19:17;;;;;;;13.30;8.55;;;5.20;99.90;;;;;;5165178;22;20012;-65
2022/03/01 05:21:18;;;;;;;14.98;8.20;;;5.20;99.90;;;;;;5164165;22;20004;-66
2022/03/01 05:23:18;;;;;;;12.38;7.38;;;5.20;99.90;;;;;;5165416;22;20020;-66
2022/03/01 05:25:22;;;;;;;13.98;7.72;;;5.10;99.90;;;;;;5164569;22;20379;-66
2022/03/01 05:27:22;;;;;;;12.63;7.38;;;5.20;99.90;;;;;;5165194;22;20439;-65
2022/03/01 05:29:23;;;;;;;13.68;7.93;;;5.20;99.90;;;;;;5165095;22;20062;-65
2022/03/01 05:31:24;;;;;;;13.80;7.45;;;5.20;99.90;;;;;;5163758;22;20018;-65
2022/03/01 05:33:25;;;;;;;15.88;8.25;;;5.30;99.90;;;;;;5165641;22;20408;-66
2022/03/01 05:35:28;;;;;;;14.52;7.22;;;5.30;99.90;;;;;;5163949;22;20016;-66
2022/03/01 05:37:29;;;;;;;14.40;7.97;;;5.20;99.90;;;;;;5164265;22;20024;-66
2022/03/01 05:39:29;;;;;;;12.50;7.53;;;5.30;99.90;;;;;;5165257;22;20015;-65
2022/03/01 05:41:30;;;;;;;11.63;6.43;;;5.30;99.90;;;;;;5164187;22;20359;-66
2022/03/01 05:43:32;;;;;;;14.30;7.07;;;5.30;99.90;;;;;;5165023;22;20009;-66
2022/03/01 05:45:32;;;;;;;12.07;6.90;;;5.30;99.90;;;;;;5163951;22;20399;-66
2022/03/01 05:47:33;;;;;;;14.40;7.43;;;5.30;99.90;;;;;;5165069;22;20088;-66
2022/03/01 05:49:34;;;;;;;11.85;6.72;;;5.20;99.90;;;;;;5164448;22;20012;-66
2022/03/01 05:51:34;;;;;;;12.77;7.45;;;5.30;99.90;;;;;;5163509;22;20093;-66
2022/03/01 05:53:35;;;;;;;13.38;6.97;;;5.20;99.90;;;;;;5163901;22;20300;-66
2022/03/01 05:55:35;;;;;;;11.93;7.32;;;5.20;99.90;;;;;;5163211;22;20015;-66
2022/03/01 05:57:36;;;;;;;14.82;7.35;;;5.20;99.90;;;;;;5164741;22;20004;-65
2022/03/01 05:59:37;;;;;;;11.20;7.13;;;5.20;99.90;;;;;;5164369;22;20026;-66
2022/03/01 06:01:38;;;;;;;11.32;6.63;;;5.20;99.90;;;;;;5162791;22;20330;-65
2022/03/01 06:03:38;;;;;;;13.18;7.22;;;5.20;99.90;;;;;;5164178;22;20436;-66
2022/03/01 06:05:39;;;;;;;11.13;6.78;;;5.10;99.90;;;;;;5186756;22;20000;-65
2022/03/01 06:07:39;;;;;;;12.27;7.45;;;5.20;99.90;;;;;;5163467;22;20062;-66
2022/03/01 06:09:40;;;;;;;13.45;7.90;;;5.20;99.90;;;;;;5164055;22;20332;-67
2022/03/01 06:11:41;;;;;;;12.65;7.38;;;5.20;99.90;;;;;;5164664;22;20016;-66
2022/03/01 06:13:43;;;;;;;11.88;6.57;;;5.20;99.90;;;;;;5165145;22;20426;-66
2022/03/01 06:15:44;;;;;;;12.13;6.60;;;5.20;99.90;;;;;;5161195;23;20053;-65
2022/03/01 06:17:44;;;;;;;11.48;7.30;;;5.20;99.90;;;;;;5164740;22;20020;-66
2022/03/01 06:19:45;;;;;;;12.45;7.03;;;5.20;99.90;;;;;;5164943;22;20012;-66
2022/03/01 06:21:45;;;;;;;14.85;8.02;;;5.20;99.90;;;;;;5164016;22;20023;-65
2022/03/01 06:23:47;;;;;;;17.48;9.18;;;5.10;99.90;;;;;;5163763;22;20008;-66
2022/03/01 06:25:49;;;;;;;13.77;7.65;;;5.10;99.90;;;;;;5163584;22;20012;-66
2022/03/01 06:27:51;;;;;;;15.32;7.97;;;5.10;99.90;;;;;;5161249;23;20109;-66
2022/03/01 06:29:52;;;;;;;16.15;8.27;;;5.10;99.90;;;;;;5164270;22;20027;-65
2022/03/01 06:31:52;;;;;;;13.90;7.50;;;5.10;99.90;;;;;;5160387;22;20016;-65
2022/03/01 06:33:55;;;;;;;15.77;7.32;;;5.10;99.90;;;;;;5161678;22;20012;-65
2022/03/01 06:35:55;;;;;;;16.48;8.38;;;5.10;99.90;;;;;;5161272;22;20466;-65
2022/03/01 06:37:56;;;;;;;12.82;8.00;;;5.00;99.90;;;;;;5162111;22;20013;-65
2022/03/01 06:39:57;;;;;;;14.25;8.00;;;5.10;99.90;;;;;;5161787;22;20023;-65
2022/03/01 06:41:57;;;;;;;14.77;8.07;;;5.10;99.90;;;;;;5161645;22;20086;-66
2022/03/01 06:43:58;;;;;;;15.00;8.65;;;5.10;99.90;;;;;;5161753;22;20004;-66
2022/03/01 06:45:58;;;;;;;24.30;8.60;;;5.10;99.90;;;;;;5161567;22;20020;-65
2022/03/01 06:47:59;;;;;;;18.30;9.05;;;5.00;99.90;;;;;;5162738;22;20347;-65
2022/03/01 06:50:00;;;;;;;13.77;7.78;;;5.00;99.90;;;;;;5184847;22;20089;-66
2022/03/01 06:52:02;;;;;;;13.95;8.50;;;5.00;99.90;;;;;;5161735;22;20013;-65
2022/03/01 06:54:03;;;;;;;12.18;7.03;;;5.10;99.90;;;;;;5159028;23;20008;-66
2022/03/01 06:56:04;;;;;;;13.90;7.93;;;5.20;99.90;;;;;;5161581;22;20458;-65
2022/03/01 06:58:04;;;;;;;17.55;8.00;;;5.10;99.90;;;;;;5162250;22;20020;-66
2022/03/01 07:00:06;;;;;;;12.95;7.80;;;5.10;99.90;;;;;;5161837;22;20016;-65
2022/03/01 07:02:07;;;;;;;12.73;7.55;;;5.10;99.90;;;;;;5161786;22;20070;-65
2022/03/01 07:04:07;;;;;;;13.15;7.95;;;5.10;99.90;;;;;;5159781;23;20444;-65
2022/03/01 07:06:09;;;;;;;15.65;8.00;;;5.10;99.90;;;;;;5161049;22;20016;-66
2022/03/01 07:08:10;;;;;;;15.05;8.05;;;5.20;99.90;;;;;;5162337;22;20066;-65
2022/03/01 07:10:13;;;;;;;12.00;7.50;;;5.10;99.90;;;;;;5160931;22;20012;-67
2022/03/01 07:12:14;;;;;;;14.35;7.70;;;5.10;99.90;;;;;;5163119;22;20078;-66
2022/03/01 07:14:14;;;;;;;14.48;8.38;;;5.10;99.90;;;;;;5162174;22;20115;-66
2022/03/01 07:16:15;;;;;;;16.10;7.82;;;5.20;99.90;;;;;;5184571;22;20091;-66
2022/03/01 07:18:16;;;;;;;13.73;7.80;;;5.20;99.90;;;;;;5162795;22;20015;-65
2022/03/01 07:20:16;;;;;;;18.45;8.63;;;5.20;99.90;;;;;;5160012;22;20026;-65
2022/03/01 07:22:18;;;;;;;16.15;7.88;;;5.10;99.90;;;;;;5162187;22;20361;-65
2022/03/01 07:24:19;;;;;;;15.07;8.30;;;5.10;99.90;;;;;;5162519;22;20012;-65
2022/03/01 07:26:19;;;;;;;14.55;7.85;;;5.10;99.90;;;;;;5162144;22;20019;-65
2022/03/01 07:28:20;;;;;;;16.08;8.35;;;5.20;99.90;;;;;;5162725;22;20016;-66
2022/03/01 07:30:27;;;;;;;13.75;7.82;;;5.30;99.90;;;;;;5161081;22;20328;-65
2022/03/01 07:32:28;;;;;;;13.63;8.35;;;5.50;99.90;;;;;;5160119;23;20385;-65
2022/03/01 07:34:28;;;;;;;17.20;8.30;;;5.60;99.90;;;;;;5161842;22;20066;-65
2022/03/01 07:36:29;;;;;;;13.38;7.60;;;5.70;99.90;;;;;;5160814;22;20031;-65
2022/03/01 07:38:29;;;;;;;18.17;7.72;;;5.70;99.90;;;;;;5161651;22;20043;-65
2022/03/01 07:40:31;;;;;;;15.57;8.63;;;5.70;99.90;;;;;;5157530;22;20008;-66
2022/03/01 07:42:32;;;;;;;14.48;7.63;;;5.70;99.90;;;;;;5162075;22;20401;-65
2022/03/01 07:44:36;;;;;;;13.63;7.75;;;5.80;99.90;;;;;;5160361;22;20004;-65
2022/03/01 07:46:37;;;;;;;16.10;8.70;;;5.70;99.90;;;;;;5157934;22;20016;-65
2022/03/01 07:48:39;;;;;;;16.92;8.55;;;5.60;99.90;;;;;;5161383;22;20031;-65
2022/03/01 07:50:40;;;;;;;15.93;8.60;;;5.60;99.90;;;;;;5161037;22;20083;-65
2022/03/01 07:52:40;;;;;;;18.27;7.97;;;5.60;99.90;;;;;;5161605;22;20020;-65
2022/03/01 07:54:41;;;;;;;14.52;8.10;;;5.60;99.90;;;;;;5161455;22;20016;-66
2022/03/01 07:56:42;;;;;;;14.32;7.95;;;5.80;99.90;;;;;;5162676;22;20012;-66
2022/03/01 07:58:43;;;;;;;15.15;8.10;;;6.00;99.90;;;;;;5163169;22;20337;-65
2022/03/01 08:00:43;;;;;;;17.65;8.35;;;6.20;99.90;;;;;;5161629;22;20028;-66
2022/03/01 08:02:44;;;;;;;15.95;8.52;;;6.50;99.90;;;;;;5162753;22;20035;-65
2022/03/01 08:04:44;;;;;;;14.45;8.45;;;6.80;99.90;;;;;;5162921;22;20035;-65
2022/03/01 08:06:45;;;;;;;14.45;7.93;;;6.90;99.90;;;;;;5162213;22;20008;-66
2022/03/01 08:08:46;;;;;;;18.63;9.18;;;6.90;99.90;;;;;;5162679;22;20009;-65
2022/03/01 08:10:49;;;;;;;13.88;7.82;;;6.90;99.70;;;;;;5161782;22;20019;-65
2022/03/01 08:12:50;;;;;;;16.80;8.57;;;7.00;99.90;;;;;;5162658;22;20035;-65
2022/03/01 08:14:50;;;;;;;16.92;9.10;;;7.10;99.90;;;;;;5161971;22;20009;-65
2022/03/01 08:16:51;;;;;;;14.35;8.13;;;7.10;98.70;;;;;;5161610;22;20008;-65
2022/03/01 08:18:51;;;;;;;15.70;8.50;;;7.20;99.50;;;;;;5164023;22;20004;-65
2022/03/01 08:20:52;;;;;;;15.25;8.80;;;7.10;98.00;;;;;;5160244;23;20012;-65
2022/03/01 08:22:53;;;;;;;14.30;8.27;;;7.10;97.80;;;;;;5163603;22;20019;-65
2022/03/01 08:24:53;;;;;;;16.63;9.15;;;7.30;99.90;;;;;;5163613;22;20015;-65
2022/03/01 08:26:54;;;;;;;16.70;8.73;;;7.40;98.80;;;;;;5162877;22;20059;-65
2022/03/01 08:28:55;;;;;;;16.15;9.30;;;7.50;97.40;;;;;;5163849;22;20008;-65
2022/03/01 08:30:55;;;;;;;16.27;9.60;;;7.50;97.60;;;;;;5185369;22;20354;-65
2022/03/01 08:32:56;;;;;;;14.80;8.77;;;7.50;98.20;;;;;;5164122;22;20012;-65
2022/03/01 08:34:57;;;;;;;13.93;8.38;;;7.60;96.20;;;;;;5163463;22;20436;-65
2022/03/01 08:36:57;;;;;;;17.27;9.30;;;7.50;96.10;;;;;;5162369;22;20516;-65
2022/03/01 08:38:58;;;;;;;15.57;8.65;;;7.50;96.50;;;;;;5163730;22;20016;-65
2022/03/01 08:40:59;;;;;;;16.40;9.05;;;7.60;97.20;;;;;;5162317;22;20004;-65
2022/03/01 08:43:00;;;;;;;14.60;8.93;;;7.60;96.90;;;;;;5163074;22;20340;-65
2022/03/01 08:45:01;;;;;;;15.95;8.95;;;7.70;95.70;;;;;;5164231;22;20013;-65
2022/03/01 08:47:01;;;;;;;19.60;9.73;;;7.70;96.20;;;;;;5163180;22;20398;-66
2022/03/01 08:49:02;;;;;;;15.85;8.65;;;7.70;95.90;;;;;;5163832;22;20009;-65
2022/03/01 08:51:04;;;;;;;16.27;9.25;;;7.70;95.90;;;;;;5162019;22;20103;-65
2022/03/01 08:53:06;;;;;;;16.48;8.93;;;7.70;95.80;;;;;;5163491;22;20369;-65
2022/03/01 08:55:08;;;;;;;17.75;9.80;;;7.70;94.30;;;;;;5162887;22;20008;-66
2022/03/01 08:57:09;;;;;;;16.58;8.88;;;7.50;94.90;;;;;;5163030;22;20436;-65
2022/03/01 08:59:09;;;;;;;18.42;9.57;;;7.60;96.70;;;;;;5163357;22;20486;-65
2022/03/01 09:01:10;;;;;;;15.52;8.43;;;7.50;93.60;;;;;;5161920;22;20008;-65
2022/03/01 09:03:12;;;;;;;15.88;9.50;;;7.50;96.10;;;;;;5162935;22;20471;-65
2022/03/01 09:05:12;;;;;;;17.05;9.63;;;7.50;94.40;;;;;;5161559;22;20400;-65
2022/03/01 09:07:13;;;;;;;18.42;9.45;;;7.40;94.50;;;;;;5160998;23;20091;-65
2022/03/01 09:09:13;;;;;;;17.52;9.70;;;7.20;93.70;;;;;;5163965;22;20078;-65
2022/03/01 09:11:14;;;;;;;18.92;9.75;;;7.30;96.80;;;;;;5161350;22;20313;-65
2022/03/01 09:13:15;;;;;;;18.95;9.80;;;7.20;94.00;;;;;;5163837;22;20015;-66
2022/03/01 09:15:15;;;;;;;16.65;9.48;;;7.20;95.60;;;;;;5161388;22;20008;-66
2022/03/01 09:17:16;;;;;;;16.65;9.38;;;7.20;95.30;;;;;;5162234;22;20027;-65
2022/03/01 09:19:17;;;;;;;18.13;9.25;;;7.10;95.60;;;;;;5162717;22;20004;-65
2022/03/01 09:21:18;;;;;;;18.08;9.50;;;7.20;95.30;;;;;;5162268;22;20424;-65
2022/03/01 09:23:18;;;;;;;18.45;9.15;;;7.10;95.50;;;;;;5163057;22;20039;-65
2022/03/01 09:25:19;;;;;;;20.10;10.52;;;7.10;96.10;;;;;;5162081;22;20376;-65
2022/03/01 09:27:20;;;;;;;15.50;9.18;;;7.10;95.30;;;;;;5161709;22;20065;-65
2022/03/01 09:29:20;;;;;;;19.08;8.68;;;7.20;96.00;;;;;;5162052;22;20020;-65
2022/03/01 09:31:21;;;;;;;16.17;9.65;;;7.30;96.70;;;;;;5160611;22;20340;-65
2022/03/01 09:33:22;;;;;;;17.55;9.13;;;7.30;96.00;;;;;;5162422;22;20004;-66
2022/03/01 09:35:22;;;;;;;18.98;9.38;;;7.30;95.70;;;;;;5161921;22;20383;-65
2022/03/01 09:37:23;;;;;;;17.75;9.80;;;7.40;96.00;;;;;;5162194;22;20012;-65
2022/03/01 09:39:23;;;;;;;19.73;10.60;;;7.40;95.60;;;;;;5162022;22;20019;-65
2022/03/01 09:41:24;;;;;;;25.23;10.68;;;7.40;96.30;;;;;;5161056;22;20352;-65
2022/03/01 09:43:25;;;;;;;20.25;10.27;;;7.40;94.20;;;;;;5162294;22;20011;-65
2022/03/01 09:45:26;;;;;;;16.63;9.32;;;7.40;93.80;;;;;;5161209;22;20012;-65
2022/03/01 09:47:27;;;;;;;19.80;10.60;;;7.40;94.10;;;;;;5162035;22;20293;-65
2022/03/01 09:49:27;;;;;;;17.83;9.98;;;7.40;94.60;;;;;;5161658;22;20099;-65
2022/03/01 09:51:29;;;;;;;17.20;9.15;;;7.40;94.60;;;;;;5160576;22;20012;-65
2022/03/01 09:53:30;;;;;;;21.75;11.23;;;7.40;94.50;;;;;;5161668;22;20008;-66
2022/03/01 09:55:30;;;;;;;17.05;9.15;;;7.40;95.70;;;;;;5161879;22;20008;-65
2022/03/01 09:57:31;;;;;;;21.40;9.95;;;7.40;94.60;;;;;;5162227;22;20044;-65
2022/03/01 09:59:32;;;;;;;16.10;9.35;;;7.40;94.90;;;;;;5161550;22;20045;-65
2022/03/01 10:01:32;;;;;;;17.98;9.18;;;7.50;95.20;;;;;;5160722;22;20440;-65
2022/03/01 10:03:36;;;;;;;17.35;9.85;;;7.50;95.70;;;;;;5162403;22;20020;-65
2022/03/01 10:05:39;;;;;;;19.70;10.18;;;7.50;95.60;;;;;;5158820;23;20008;-64
2022/03/01 10:07:45;;;;;;;19.98;10.40;;;7.50;94.10;;;;;;5161525;22;20127;-65
2022/03/01 10:09:45;;;;;;;18.33;9.43;;;7.50;94.10;;;;;;5161073;22;20138;-65
2022/03/01 10:11:47;;;;;;;19.17;9.48;;;7.60;94.10;;;;;;5161644;22;20020;-65
2022/03/01 10:13:57;;;;;;;18.55;9.88;;;7.60;94.30;;;;;;5162525;22;20047;-65
2022/03/01 10:16:15;;;;;;;16.98;9.02;;;7.60;94.00;;;;;;5161488;22;20062;-65
2022/03/01 10:18:16;;;;;;;15.55;9.30;;;7.60;94.90;;;;;;5161054;22;20032;-65
2022/03/01 10:20:19;;;;;;;19.17;10.52;;;7.70;96.20;;;;;;5161404;22;20352;-65
2022/03/01 10:22:21;;;;;;;;;;;7.70;93.40;;;;;;5163707;22;20019;-65
2022/03/01 10:24:21;;;;;;;21.55;10.18;;;7.70;93.30;;;;;;5162119;22;19907;-65
2022/03/01 10:26:28;;;;;;;21.88;9.98;;;7.80;94.00;;;;;;5161273;22;20009;-65
2022/03/01 10:28:33;;;;;;;18.45;9.43;;;7.80;94.00;;;;;;5161754;22;20019;-65
2022/03/01 10:30:36;;;;;;;17.80;10.02;;;7.90;94.60;;;;;;5160607;22;20402;-65